أدوات المستخدم

أدوات الموقع


taf

جدول المحتويات

TAF

Terminal Aerodrome Forecast
الرصد الجوي ويرمز لأختصارة (TAF)
في عالم الأرصاد الجوية والطيران تسمى صيغة تقرير معلومات وتوقعات حالة الطقس (TAF) وعلى الأخص تلك المعلومات التي تهم الطيار خلال تنفيذ مهامة، من حيث المعلومات التي يحتاج لها من المطار الذي سوف يغادر منه والتوقعات التي يمكن أن تواجهه خلال طريقة والمطارات التي سوف يطير فوقها. يتم إدراج التوقعات بصيغة رسمية في نشرة معلومات كل 12 ساعة وأيضاً يتم إدراج التوقعات التي من الممكن أن تحدث خلال 24 ساعة. تلك المعلومات تبين من خلال التوقيت العالمي جرينتش. وهناك معلومات شبيه للرصدة عن التوقعات الجوية السائد في منطقة معينة خلال اليوم ويرمز لها METAR

مثال

مثال على نشرة TAF

 TAF KXYZ 051730Z 0518/0624 31008KT 
   3SM -SHRA BKN020
   FM052300 30006KT 5SM -SHRA OVC030 
   PROB30 0604/0606 VRB20G35KT 1SM 
   TSRA BKN015CB 
   FM 060600 250010KT 4SM -SHRA OVC050
   TEMPO 0608/0611 2SM -SHRA OVC030=  
   RMK NXT FCST BY 00Z=


الاختصارات

يمكن التعرف على الاختصارات المستخدمة في نشرات الارصاد الجوية من خلال الوصلة التالية:

تعاريف الاختصارات

Metar

عندما نذكر TAF فالكثير يقرنها مع الميتار Metar وهي أختصار للكلمة الفرنسية (MÉTéorologique) وتعرف على أنها حالة الطقس في منطقة المطار ويتم تحديثها كل ساعة او ساعتين بحسب إمكانيات وأنظمة ذلك المطار.

taf.txt · آخر تعديل: 2016/09/07 01:22 (تحرير خارجي)